LHA8131 CYKA-KSEA
Flight info
| Callsign | LHA8131 |
|---|---|
| Flight time | 0h 43m |
| Altitude | 24000 |
| Route | OLONA DCT BUHNR |
| Aircraft | B737/M-SDE1E2FGIJ1RWYZ/S |
Departure
| Time | 2026-04-21 16:19 |
|---|---|
| Airport | Kamloops John Moose Fulton Field Regional Airport (CYKA) |
Arrival
| Time | 2026-04-21 17:02 |
|---|---|
| Airport | Seattle–Tacoma International Airport (KSEA) |
| Time | Latitude | Longitude | Altitude | Speed | Heading |
|---|---|---|---|---|---|
| 2026-04-21 15:17 | 50.70427 | -120.44174 | 1141 ft | 0 kts | 151° |
| 2026-04-21 16:15 | 50.70423 | -120.44170 | 1141 ft | 1 kts | 151° |
| 2026-04-21 16:16 | 50.70407 | -120.44168 | 1141 ft | 4 kts | 175° |
| 2026-04-21 16:16 | 50.70381 | -120.44146 | 1143 ft | 5 kts | 124° |
| 2026-04-21 16:16 | 50.70367 | -120.44076 | 1140 ft | 8 kts | 103° |
| 2026-04-21 16:16 | 50.70350 | -120.43970 | 1141 ft | 12 kts | 104° |
| 2026-04-21 16:17 | 50.70329 | -120.43830 | 1139 ft | 15 kts | 103° |
| 2026-04-21 16:17 | 50.70303 | -120.43658 | 1138 ft | 17 kts | 103° |
| 2026-04-21 16:17 | 50.70276 | -120.43474 | 1138 ft | 17 kts | 103° |
| 2026-04-21 16:17 | 50.70243 | -120.43296 | 1139 ft | 17 kts | 122° |
| 2026-04-21 16:18 | 50.70153 | -120.43191 | 1141 ft | 16 kts | 160° |
| 2026-04-21 16:18 | 50.70069 | -120.43262 | 1140 ft | 15 kts | 262° |
| 2026-04-21 16:18 | 50.70109 | -120.43571 | 1139 ft | 58 kts | 283° |
| 2026-04-21 16:18 | 50.70270 | -120.44648 | 1140 ft | 140 kts | 283° |
| 2026-04-21 16:19 | 50.70551 | -120.46410 | 1513 ft | 179 kts | 285° |
| 2026-04-21 16:19 | 50.70903 | -120.48349 | 2434 ft | 189 kts | 285° |
| 2026-04-21 16:19 | 50.71229 | -120.50466 | 3213 ft | 206 kts | 282° |
| 2026-04-21 16:19 | 50.71542 | -120.52705 | 3971 ft | 213 kts | 282° |
| 2026-04-21 16:20 | 50.71863 | -120.55024 | 4733 ft | 220 kts | 282° |
| 2026-04-21 16:20 | 50.72203 | -120.57432 | 5479 ft | 229 kts | 282° |
| 2026-04-21 16:20 | 50.72564 | -120.59956 | 6228 ft | 243 kts | 283° |
| 2026-04-21 16:20 | 50.72953 | -120.62630 | 7008 ft | 257 kts | 283° |
| 2026-04-21 16:21 | 50.73368 | -120.65443 | 7780 ft | 269 kts | 283° |
| 2026-04-21 16:21 | 50.73794 | -120.68343 | 8565 ft | 281 kts | 283° |
| 2026-04-21 16:21 | 50.74242 | -120.71398 | 9334 ft | 288 kts | 283° |
| 2026-04-21 16:21 | 50.74685 | -120.74468 | 10073 ft | 287 kts | 280° |
| 2026-04-21 16:22 | 50.74901 | -120.77608 | 10835 ft | 288 kts | 272° |
| 2026-04-21 16:22 | 50.74978 | -120.80777 | 11586 ft | 289 kts | 271° |
| 2026-04-21 16:22 | 50.75054 | -120.83951 | 12342 ft | 289 kts | 271° |
| 2026-04-21 16:22 | 50.75148 | -120.87131 | 13089 ft | 289 kts | 271° |
| 2026-04-21 16:23 | 50.75253 | -120.90282 | 13841 ft | 295 kts | 271° |
| 2026-04-21 16:23 | 50.75340 | -120.93563 | 14605 ft | 303 kts | 265° |
| 2026-04-21 16:23 | 50.74823 | -120.96788 | 15346 ft | 308 kts | 243° |
| 2026-04-21 16:23 | 50.73530 | -120.99504 | 16116 ft | 314 kts | 222° |
| 2026-04-21 16:24 | 50.71691 | -121.01387 | 16891 ft | 318 kts | 210° |
| 2026-04-21 16:24 | 50.69711 | -121.03002 | 17640 ft | 323 kts | 208° |
| 2026-04-21 16:24 | 50.67676 | -121.04562 | 18402 ft | 327 kts | 208° |
| 2026-04-21 16:24 | 50.65616 | -121.06118 | 19146 ft | 330 kts | 208° |
| 2026-04-21 16:25 | 50.63565 | -121.07669 | 19895 ft | 333 kts | 208° |
| 2026-04-21 16:25 | 50.61475 | -121.09259 | 20635 ft | 335 kts | 208° |
| 2026-04-21 16:25 | 50.59376 | -121.10867 | 21390 ft | 336 kts | 208° |
| 2026-04-21 16:25 | 50.57269 | -121.12488 | 22139 ft | 337 kts | 208° |
| 2026-04-21 16:26 | 50.55159 | -121.14113 | 22884 ft | 338 kts | 208° |
| 2026-04-21 16:26 | 50.53050 | -121.15741 | 23568 ft | 340 kts | 208° |
| 2026-04-21 16:26 | 50.50893 | -121.17412 | 23847 ft | 354 kts | 208° |
| 2026-04-21 16:26 | 50.48632 | -121.19166 | 23882 ft | 370 kts | 208° |
| 2026-04-21 16:27 | 50.46307 | -121.20967 | 23897 ft | 385 kts | 208° |
| 2026-04-21 16:27 | 50.43857 | -121.22862 | 23892 ft | 400 kts | 208° |
| 2026-04-21 16:27 | 50.41326 | -121.24816 | 23896 ft | 412 kts | 208° |
| 2026-04-21 16:27 | 50.38717 | -121.26825 | 23895 ft | 423 kts | 208° |
| 2026-04-21 16:28 | 50.36049 | -121.28877 | 23890 ft | 431 kts | 208° |
| 2026-04-21 16:28 | 50.33331 | -121.30965 | 23874 ft | 439 kts | 207° |
| 2026-04-21 16:28 | 50.30572 | -121.33080 | 23864 ft | 443 kts | 207° |
| 2026-04-21 16:28 | 50.27792 | -121.35209 | 23877 ft | 445 kts | 207° |
| 2026-04-21 16:29 | 50.25051 | -121.37306 | 23860 ft | 445 kts | 207° |
| 2026-04-21 16:29 | 50.22272 | -121.39430 | 23883 ft | 444 kts | 207° |
| 2026-04-21 16:29 | 50.19490 | -121.41553 | 23870 ft | 445 kts | 207° |
| 2026-04-21 16:29 | 50.16713 | -121.43670 | 23878 ft | 444 kts | 207° |
| 2026-04-21 16:30 | 50.13934 | -121.45790 | 23876 ft | 445 kts | 207° |
| 2026-04-21 16:30 | 50.11147 | -121.47910 | 23866 ft | 446 kts | 207° |
| 2026-04-21 16:30 | 50.08363 | -121.50021 | 23876 ft | 445 kts | 207° |
| 2026-04-21 16:30 | 50.05576 | -121.52129 | 23876 ft | 446 kts | 207° |
| 2026-04-21 16:31 | 50.02825 | -121.54207 | 23880 ft | 446 kts | 207° |
| 2026-04-21 16:31 | 50.00035 | -121.56316 | 23885 ft | 445 kts | 207° |
| 2026-04-21 16:31 | 49.97248 | -121.58421 | 23864 ft | 446 kts | 206° |
| 2026-04-21 16:31 | 49.94458 | -121.60525 | 23884 ft | 446 kts | 206° |
| 2026-04-21 16:32 | 49.91664 | -121.62630 | 23867 ft | 446 kts | 206° |
| 2026-04-21 16:32 | 49.88874 | -121.64730 | 23878 ft | 446 kts | 206° |
| 2026-04-21 16:32 | 49.86081 | -121.66830 | 23877 ft | 446 kts | 206° |
| 2026-04-21 16:32 | 49.83286 | -121.68927 | 23876 ft | 446 kts | 206° |
| 2026-04-21 16:33 | 49.80533 | -121.70989 | 23876 ft | 446 kts | 206° |
| 2026-04-21 16:33 | 49.77740 | -121.73077 | 23871 ft | 446 kts | 206° |
| 2026-04-21 16:33 | 49.74947 | -121.75166 | 23873 ft | 446 kts | 206° |
| 2026-04-21 16:33 | 49.72155 | -121.77252 | 23875 ft | 446 kts | 206° |
| 2026-04-21 16:34 | 49.69360 | -121.79337 | 23865 ft | 447 kts | 206° |
| 2026-04-21 16:34 | 49.66558 | -121.81425 | 23869 ft | 447 kts | 206° |
| 2026-04-21 16:34 | 49.63759 | -121.83509 | 23865 ft | 447 kts | 206° |
| 2026-04-21 16:34 | 49.60961 | -121.85591 | 23874 ft | 446 kts | 206° |
| 2026-04-21 16:35 | 49.58200 | -121.87640 | 23860 ft | 446 kts | 206° |
| 2026-04-21 16:35 | 49.55403 | -121.89714 | 23856 ft | 446 kts | 206° |
| 2026-04-21 16:35 | 49.52607 | -121.91784 | 23849 ft | 446 kts | 206° |
| 2026-04-21 16:35 | 49.49810 | -121.93853 | 23864 ft | 446 kts | 206° |
| 2026-04-21 16:36 | 49.47011 | -121.95923 | 23861 ft | 447 kts | 206° |
| 2026-04-21 16:36 | 49.44210 | -121.97990 | 23857 ft | 447 kts | 206° |
| 2026-04-21 16:36 | 49.41407 | -122.00056 | 23862 ft | 447 kts | 206° |
| 2026-04-21 16:36 | 49.38600 | -122.02123 | 23864 ft | 448 kts | 205° |
| 2026-04-21 16:37 | 49.35828 | -122.04161 | 23866 ft | 448 kts | 205° |
| 2026-04-21 16:37 | 49.33015 | -122.06226 | 23857 ft | 448 kts | 205° |
| 2026-04-21 16:37 | 49.30203 | -122.08286 | 23865 ft | 448 kts | 205° |
| 2026-04-21 16:37 | 49.27395 | -122.10340 | 23857 ft | 448 kts | 205° |
| 2026-04-21 16:38 | 49.24576 | -122.12402 | 23859 ft | 448 kts | 205° |
| 2026-04-21 16:38 | 49.21763 | -122.14456 | 23856 ft | 448 kts | 205° |
| 2026-04-21 16:38 | 49.18983 | -122.16483 | 23865 ft | 448 kts | 205° |
| 2026-04-21 16:38 | 49.16169 | -122.18533 | 23865 ft | 449 kts | 205° |
| 2026-04-21 16:39 | 49.13346 | -122.20588 | 23861 ft | 449 kts | 205° |
| 2026-04-21 16:39 | 49.10526 | -122.22637 | 23853 ft | 449 kts | 205° |
| 2026-04-21 16:39 | 49.07702 | -122.24687 | 23852 ft | 449 kts | 205° |
| 2026-04-21 16:39 | 49.04879 | -122.26734 | 23857 ft | 450 kts | 204° |
| 2026-04-21 16:40 | 49.02055 | -122.28779 | 23863 ft | 450 kts | 204° |
| 2026-04-21 16:40 | 48.99262 | -122.30798 | 23863 ft | 450 kts | 204° |
| 2026-04-21 16:40 | 48.96431 | -122.32844 | 23856 ft | 451 kts | 204° |
| 2026-04-21 16:40 | 48.93597 | -122.34887 | 23860 ft | 451 kts | 204° |
| 2026-04-21 16:41 | 48.90762 | -122.36929 | 23858 ft | 451 kts | 204° |
| 2026-04-21 16:41 | 48.87930 | -122.38966 | 23863 ft | 451 kts | 204° |
| 2026-04-21 16:41 | 48.85094 | -122.41003 | 23861 ft | 451 kts | 204° |
| 2026-04-21 16:41 | 48.82254 | -122.43041 | 23857 ft | 451 kts | 204° |
| 2026-04-21 16:42 | 48.79920 | -122.44714 | 23862 ft | 452 kts | 204° |
| 2026-04-21 16:42 | 48.77081 | -122.46747 | 23866 ft | 452 kts | 204° |
| 2026-04-21 16:42 | 48.74277 | -122.48750 | 23860 ft | 452 kts | 204° |
| 2026-04-21 16:42 | 48.71433 | -122.50781 | 23860 ft | 451 kts | 204° |
| 2026-04-21 16:43 | 48.68593 | -122.52808 | 23857 ft | 451 kts | 203° |
| 2026-04-21 16:43 | 48.65751 | -122.54831 | 23856 ft | 451 kts | 203° |
| 2026-04-21 16:43 | 48.62914 | -122.56849 | 23862 ft | 451 kts | 204° |
| 2026-04-21 16:43 | 48.60075 | -122.58868 | 23869 ft | 451 kts | 203° |
| 2026-04-21 16:44 | 48.57234 | -122.60884 | 23779 ft | 450 kts | 203° |
| 2026-04-21 16:44 | 48.54493 | -122.62829 | 23325 ft | 438 kts | 203° |
| 2026-04-21 16:44 | 48.51771 | -122.64759 | 22873 ft | 426 kts | 203° |
| 2026-04-21 16:44 | 48.49116 | -122.66639 | 22428 ft | 418 kts | 203° |
| 2026-04-21 16:45 | 48.46482 | -122.68500 | 21980 ft | 418 kts | 203° |
| 2026-04-21 16:45 | 48.43858 | -122.70352 | 21535 ft | 415 kts | 204° |
| 2026-04-21 16:45 | 48.41268 | -122.72179 | 21084 ft | 407 kts | 204° |
| 2026-04-21 16:45 | 48.38723 | -122.73971 | 20624 ft | 399 kts | 203° |
| 2026-04-21 16:46 | 48.36228 | -122.75726 | 20174 ft | 393 kts | 203° |
| 2026-04-21 16:46 | 48.33792 | -122.77436 | 19735 ft | 391 kts | 204° |
| 2026-04-21 16:46 | 48.31336 | -122.79160 | 19287 ft | 388 kts | 204° |
| 2026-04-21 16:46 | 48.28898 | -122.80876 | 18838 ft | 386 kts | 204° |
| 2026-04-21 16:47 | 48.26475 | -122.82580 | 18393 ft | 383 kts | 204° |
| 2026-04-21 16:47 | 48.24074 | -122.84261 | 17941 ft | 378 kts | 204° |
| 2026-04-21 16:47 | 48.21714 | -122.85910 | 17485 ft | 371 kts | 204° |
| 2026-04-21 16:47 | 48.19389 | -122.87524 | 17034 ft | 366 kts | 202° |
| 2026-04-21 16:48 | 48.16986 | -122.88493 | 16572 ft | 362 kts | 186° |
| 2026-04-21 16:48 | 48.14494 | -122.88381 | 16133 ft | 358 kts | 170° |
| 2026-04-21 16:48 | 48.12071 | -122.87618 | 15695 ft | 353 kts | 167° |
| 2026-04-21 16:48 | 48.09697 | -122.86826 | 15241 ft | 346 kts | 168° |
| 2026-04-21 16:49 | 48.07359 | -122.86074 | 14785 ft | 340 kts | 168° |
| 2026-04-21 16:49 | 48.05126 | -122.85046 | 14316 ft | 334 kts | 153° |
| 2026-04-21 16:49 | 48.03241 | -122.83081 | 13881 ft | 329 kts | 137° |
| 2026-04-21 16:49 | 48.01809 | -122.80434 | 13445 ft | 326 kts | 126° |
| 2026-04-21 16:50 | 48.00608 | -122.77631 | 13011 ft | 323 kts | 123° |
| 2026-04-21 16:50 | 47.99426 | -122.74795 | 12565 ft | 320 kts | 123° |
| 2026-04-21 16:50 | 47.98304 | -122.71943 | 12102 ft | 318 kts | 117° |
| 2026-04-21 16:50 | 47.97520 | -122.68881 | 11658 ft | 315 kts | 111° |
| 2026-04-21 16:51 | 47.96821 | -122.65797 | 11203 ft | 312 kts | 110° |
| 2026-04-21 16:51 | 47.96127 | -122.62740 | 10750 ft | 310 kts | 110° |
| 2026-04-21 16:51 | 47.95424 | -122.59721 | 10298 ft | 308 kts | 110° |
| 2026-04-21 16:51 | 47.94695 | -122.56727 | 9845 ft | 306 kts | 112° |
| 2026-04-21 16:52 | 47.93849 | -122.53817 | 9395 ft | 305 kts | 114° |
| 2026-04-21 16:52 | 47.92963 | -122.50949 | 8944 ft | 304 kts | 115° |
| 2026-04-21 16:52 | 47.92088 | -122.48161 | 8487 ft | 297 kts | 115° |
| 2026-04-21 16:52 | 47.91216 | -122.45412 | 8028 ft | 289 kts | 115° |
| 2026-04-21 16:53 | 47.90363 | -122.42734 | 7574 ft | 283 kts | 115° |
| 2026-04-21 16:53 | 47.89509 | -122.40131 | 7113 ft | 277 kts | 120° |
| 2026-04-21 16:53 | 47.88468 | -122.37743 | 6680 ft | 271 kts | 124° |
| 2026-04-21 16:53 | 47.87414 | -122.35495 | 6258 ft | 259 kts | 125° |
| 2026-04-21 16:54 | 47.86400 | -122.33354 | 5820 ft | 248 kts | 125° |
| 2026-04-21 16:54 | 47.85426 | -122.31306 | 5360 ft | 239 kts | 125° |
| 2026-04-21 16:54 | 47.84477 | -122.29312 | 4945 ft | 229 kts | 125° |
| 2026-04-21 16:54 | 47.83545 | -122.27439 | 4528 ft | 222 kts | 127° |
| 2026-04-21 16:55 | 47.82516 | -122.25828 | 4109 ft | 216 kts | 149° |
| 2026-04-21 16:55 | 47.81143 | -122.25334 | 4006 ft | 197 kts | 187° |
| 2026-04-21 16:55 | 47.79922 | -122.26100 | 4016 ft | 190 kts | 213° |
| 2026-04-21 16:55 | 47.78776 | -122.27112 | 4009 ft | 193 kts | 207° |
| 2026-04-21 16:56 | 47.77546 | -122.27963 | 4008 ft | 196 kts | 204° |
| 2026-04-21 16:56 | 47.76309 | -122.28789 | 4000 ft | 194 kts | 205° |
| 2026-04-21 16:56 | 47.75081 | -122.29628 | 3984 ft | 193 kts | 205° |
| 2026-04-21 16:56 | 47.73847 | -122.30315 | 3983 ft | 193 kts | 189° |
| 2026-04-21 16:57 | 47.72522 | -122.30486 | 3992 ft | 192 kts | 183° |
| 2026-04-21 16:57 | 47.71189 | -122.30556 | 4000 ft | 192 kts | 181° |
| 2026-04-21 16:57 | 47.69846 | -122.30578 | 4008 ft | 194 kts | 180° |
| 2026-04-21 16:57 | 47.68497 | -122.30592 | 4005 ft | 194 kts | 180° |
| 2026-04-21 16:58 | 47.67147 | -122.30601 | 4009 ft | 194 kts | 180° |
| 2026-04-21 16:58 | 47.65797 | -122.30611 | 4004 ft | 195 kts | 180° |
| 2026-04-21 16:58 | 47.64448 | -122.30624 | 3953 ft | 193 kts | 180° |
| 2026-04-21 16:58 | 47.63100 | -122.30634 | 3696 ft | 193 kts | 180° |
| 2026-04-21 16:59 | 47.61771 | -122.30644 | 3454 ft | 189 kts | 180° |
| 2026-04-21 16:59 | 47.60489 | -122.30655 | 3201 ft | 186 kts | 180° |
| 2026-04-21 16:59 | 47.59197 | -122.30801 | 2905 ft | 187 kts | 189° |
| 2026-04-21 16:59 | 47.57936 | -122.31193 | 2673 ft | 184 kts | 192° |
| 2026-04-21 17:00 | 47.56688 | -122.31637 | 2433 ft | 185 kts | 192° |
| 2026-04-21 17:00 | 47.55415 | -122.31911 | 2175 ft | 183 kts | 182° |
| 2026-04-21 17:00 | 47.54586 | -122.31895 | 2061 ft | 176 kts | 176° |
| 2026-04-21 17:00 | 47.52989 | -122.31676 | 1721 ft | 171 kts | 177° |
| 2026-04-21 17:01 | 47.51803 | -122.31711 | 1476 ft | 171 kts | 181° |
| 2026-04-21 17:01 | 47.50625 | -122.31763 | 1279 ft | 164 kts | 179° |
| 2026-04-21 17:01 | 47.49548 | -122.31777 | 1137 ft | 153 kts | 180° |
| 2026-04-21 17:01 | 47.48501 | -122.31786 | 911 ft | 147 kts | 178° |
| 2026-04-21 17:02 | 47.47516 | -122.31777 | 662 ft | 138 kts | 178° |
| 2026-04-21 17:02 | 47.46586 | -122.31785 | 436 ft | 129 kts | 179° |
| 2026-04-21 17:02 | 47.45769 | -122.31788 | 383 ft | 94 kts | 180° |
| 2026-04-21 17:02 | 47.45329 | -122.31796 | 383 ft | 36 kts | 181° |
| 2026-04-21 17:03 | 47.45110 | -122.31792 | 383 ft | 30 kts | 177° |
| 2026-04-21 17:03 | 47.44912 | -122.31752 | 383 ft | 28 kts | 160° |
| 2026-04-21 17:03 | 47.44761 | -122.31643 | 383 ft | 22 kts | 149° |
| 2026-04-21 17:03 | 47.44663 | -122.31479 | 383 ft | 21 kts | 111° |
| 2026-04-21 17:04 | 47.44648 | -122.31285 | 383 ft | 14 kts | 89° |
| 2026-04-21 17:04 | 47.44638 | -122.31142 | 383 ft | 14 kts | 112° |
| 2026-04-21 17:04 | 47.44576 | -122.31041 | 383 ft | 13 kts | 145° |
| 2026-04-21 17:04 | 47.44498 | -122.30974 | 383 ft | 13 kts | 151° |
| 2026-04-21 17:05 | 47.44463 | -122.30946 | 383 ft | 0 kts | 151° |
| 2026-04-21 17:05 | 47.44456 | -122.30940 | 383 ft | 2 kts | 151° |
| 2026-04-21 17:06 | 47.44433 | -122.30922 | 383 ft | 5 kts | 151° |
| 2026-04-21 17:06 | 47.44398 | -122.30893 | 383 ft | 7 kts | 151° |
| 2026-04-21 17:06 | 47.44364 | -122.30837 | 383 ft | 8 kts | 124° |
| 2026-04-21 17:06 | 47.44349 | -122.30764 | 383 ft | 7 kts | 96° |
| 2026-04-21 17:07 | 47.44347 | -122.30691 | 383 ft | 7 kts | 97° |
| 2026-04-21 17:07 | 47.44316 | -122.30640 | 383 ft | 6 kts | 155° |
| 2026-04-21 17:07 | 47.44314 | -122.30639 | 383 ft | 0 kts | 159° |
| 2026-04-21 17:09 | 47.44294 | -122.30632 | 383 ft | 5 kts | 169° |
| 2026-04-21 17:09 | 47.44245 | -122.30629 | 383 ft | 9 kts | 180° |
| 2026-04-21 17:10 | 47.44164 | -122.30631 | 383 ft | 14 kts | 182° |
| 2026-04-21 17:10 | 47.44059 | -122.30635 | 383 ft | 16 kts | 181° |
| 2026-04-21 17:10 | 47.43951 | -122.30636 | 383 ft | 15 kts | 178° |
| 2026-04-21 17:10 | 47.43848 | -122.30635 | 382 ft | 15 kts | 183° |
| 2026-04-21 17:11 | 47.43768 | -122.30636 | 382 ft | 8 kts | 172° |
| 2026-04-21 17:11 | 47.43726 | -122.30590 | 382 ft | 8 kts | 112° |
| 2026-04-21 17:11 | 47.43723 | -122.30548 | 382 ft | 0 kts | 91° |
| 2026-04-21 17:12 | 47.43723 | -122.30547 | 382 ft | 1 kts | 91° |
| 2026-04-21 17:12 | 47.43722 | -122.30516 | 382 ft | 5 kts | 91° |
| 2026-04-21 17:12 | 47.43722 | -122.30470 | 382 ft | 0 kts | 90° |
| 2026-04-21 17:13 | 47.43722 | -122.30448 | 382 ft | 5 kts | 90° |
| 2026-04-21 17:13 | 47.43724 | -122.30391 | 382 ft | 6 kts | 79° |
| 2026-04-21 17:13 | 47.43753 | -122.30346 | 382 ft | 7 kts | 20° |
| 2026-04-21 17:14 | 47.43798 | -122.30326 | 382 ft | 7 kts | 17° |
| 2026-04-21 17:14 | 47.43810 | -122.30321 | 383 ft | 0 kts | 14° |